Presidente Lucena, Brazil
Current Conditions -  °F | °C
As of 8:00 PM on Saturday 20 Dec 2014 (Local Time) from SBCO Reporting Station
Thunderstorm Thunderstorm  
Wind Chill: 82°   Ceiling: 10000
Heat Index: 86°   Visibility: 6mi
Dew Point: 70°   Wind: 15mph
Humidity: 66%   Direction: 140°SE
Pressure: 29.5"   Gusts: NA
Location:  29.52°S, 51.18°W
Report Text: SBCO 202200Z 14013KT 9999 TS FEW040CB OVC100 28/21 Q0999
Loading
Personal Weather Stations






























Interactive Weather Map New forecast layout! Learn more

10-Day Weather Forecast

Advertisements
Track Severe Weather on mobile